createdAt,value
2017-02-19T00:00:30.520Z,0
2017-02-19T00:01:11.079Z,0
2017-02-19T00:01:51.647Z,0
2017-02-19T00:02:32.200Z,0
2017-02-19T00:03:12.791Z,0
2017-02-19T00:03:54.382Z,0
2017-02-19T00:04:34.959Z,0
2017-02-19T00:05:15.553Z,0
2017-02-19T00:05:56.135Z,0
2017-02-19T00:06:36.713Z,0
2017-02-19T00:07:17.272Z,0
2017-02-19T00:07:57.871Z,0
2017-02-19T00:08:40.476Z,0
2017-02-19T00:09:21.072Z,0
2017-02-19T00:10:01.643Z,0
2017-02-19T00:10:42.215Z,0
2017-02-19T00:11:22.786Z,0
2017-02-19T00:12:03.341Z,0
2017-02-19T00:12:43.918Z,0
2017-02-19T00:13:24.500Z,0
2017-02-19T00:14:05.092Z,0
2017-02-19T00:14:45.665Z,0
2017-02-19T00:15:26.242Z,0
2017-02-19T00:16:06.805Z,0
2017-02-19T00:16:47.400Z,0
2017-02-19T00:17:28.972Z,0
2017-02-19T00:18:10.545Z,0
2017-02-19T00:18:51.119Z,0
2017-02-19T00:19:31.706Z,0
2017-02-19T00:20:12.305Z,0
2017-02-19T00:20:52.869Z,0
2017-02-19T00:21:33.428Z,0
2017-02-19T00:22:14.028Z,0
2017-02-19T00:22:56.597Z,0
2017-02-19T00:23:38.173Z,0
2017-02-19T00:24:18.774Z,0
2017-02-19T00:24:59.339Z,0
2017-02-19T00:25:39.900Z,0
2017-02-19T00:26:20.487Z,0
2017-02-19T00:27:01.059Z,0
2017-02-19T00:27:41.624Z,0
2017-02-19T00:28:22.190Z,0
2017-02-19T00:29:04.785Z,0
2017-02-19T00:29:45.354Z,0
2017-02-19T00:30:25.921Z,0
2017-02-19T00:31:06.482Z,0
2017-02-19T00:31:47.047Z,0
2017-02-19T00:32:28.644Z,0
2017-02-19T00:33:09.216Z,0
2017-02-19T00:33:49.773Z,0
2017-02-19T00:34:30.336Z,0
2017-02-19T00:35:10.951Z,0
2017-02-19T00:35:53.546Z,0
2017-02-19T00:36:34.112Z,0
2017-02-19T00:37:14.662Z,0
2017-02-19T00:37:55.230Z,0
2017-02-19T00:38:35.791Z,0
2017-02-19T00:39:18.367Z,0
2017-02-19T00:39:58.930Z,0
2017-02-19T00:40:39.493Z,0
2017-02-19T00:41:20.076Z,0
2017-02-19T00:42:00.634Z,0
2017-02-19T00:42:41.214Z,0
2017-02-19T00:43:21.777Z,0
2017-02-19T00:44:02.352Z,0
2017-02-19T00:44:42.922Z,0
2017-02-19T00:45:24.491Z,0
2017-02-19T00:46:05.238Z,0
2017-02-19T00:46:45.816Z,0
2017-02-19T00:47:26.402Z,0
2017-02-19T00:48:06.972Z,0
2017-02-19T00:48:47.543Z,0
2017-02-19T00:49:32.756Z,0
2017-02-19T00:50:13.333Z,0
2017-02-19T00:50:53.905Z,0
2017-02-19T00:51:34.485Z,0
2017-02-19T00:52:15.063Z,0
2017-02-19T00:52:55.647Z,0
2017-02-19T00:53:36.230Z,0
2017-02-19T00:54:16.832Z,0
2017-02-19T00:54:57.428Z,0
2017-02-19T00:55:38.021Z,0
2017-02-19T00:56:18.593Z,0
2017-02-19T00:56:59.166Z,0
2017-02-19T00:57:39.741Z,0
2017-02-19T00:58:21.320Z,0
2017-02-19T00:59:01.880Z,0
2017-02-19T00:59:43.454Z,0
2017-02-19T01:00:24.015Z,0
2017-02-19T01:01:05.566Z,0
2017-02-19T01:01:46.136Z,0
2017-02-19T01:02:28.713Z,0
2017-02-19T01:03:09.291Z,0
2017-02-19T01:03:51.250Z,0
2017-02-19T01:04:31.816Z,0
2017-02-19T01:05:13.382Z,0
2017-02-19T01:05:54.960Z,0
2017-02-19T01:06:36.531Z,0
2017-02-19T01:07:17.108Z,0
2017-02-19T01:07:58.684Z,0
2017-02-19T01:08:39.279Z,0
2017-02-19T01:09:19.844Z,0
2017-02-19T01:10:00.403Z,0
2017-02-19T01:10:40.972Z,0
2017-02-19T01:11:21.550Z,0
2017-02-19T01:12:02.116Z,0
2017-02-19T01:12:42.710Z,0
2017-02-19T01:13:23.266Z,0
2017-02-19T01:14:03.840Z,0
2017-02-19T01:14:44.415Z,0
2017-02-19T01:15:24.997Z,0
2017-02-19T01:16:05.556Z,0
2017-02-19T01:16:46.118Z,0
2017-02-19T01:17:26.707Z,0
2017-02-19T01:18:07.255Z,0
2017-02-19T01:18:47.832Z,0
2017-02-19T01:19:28.382Z,0
2017-02-19T01:20:08.965Z,0
2017-02-19T01:20:49.535Z,0
2017-02-19T01:21:30.144Z,0
2017-02-19T01:22:11.821Z,0
2017-02-19T01:22:52.470Z,0
2017-02-19T01:23:33.142Z,0
2017-02-19T01:24:13.785Z,0
2017-02-19T01:24:54.348Z,0
2017-02-19T01:25:34.932Z,0
2017-02-19T01:26:15.527Z,0
2017-02-19T01:26:56.184Z,0
2017-02-19T01:27:36.764Z,0
2017-02-19T01:28:17.341Z,0
2017-02-19T01:28:57.931Z,0
2017-02-19T01:29:38.595Z,0
2017-02-19T01:30:19.173Z,0
2017-02-19T01:30:59.758Z,0
2017-02-19T01:31:40.338Z,0
2017-02-19T01:32:21.926Z,0
2017-02-19T01:33:02.487Z,0
2017-02-19T01:33:43.112Z,0
2017-02-19T01:34:23.708Z,0
2017-02-19T01:35:04.330Z,0
2017-02-19T01:35:44.909Z,0
2017-02-19T01:36:25.491Z,0
2017-02-19T01:37:07.103Z,0
2017-02-19T01:37:47.755Z,0
2017-02-19T01:38:28.342Z,0
2017-02-19T01:39:09.040Z,0
2017-02-19T01:39:49.613Z,0
2017-02-19T01:40:31.188Z,0
2017-02-19T01:41:11.759Z,0
2017-02-19T01:41:53.333Z,0
2017-02-19T01:42:34.986Z,0
2017-02-19T01:43:15.642Z,0
2017-02-19T01:43:56.211Z,0
2017-02-19T01:44:36.801Z,0
2017-02-19T01:45:17.394Z,0
2017-02-19T01:45:59.994Z,0
2017-02-19T01:46:40.647Z,0
2017-02-19T01:47:23.244Z,0
2017-02-19T01:48:05.843Z,0
2017-02-19T01:48:46.498Z,0
2017-02-19T01:49:27.153Z,0
2017-02-19T01:50:07.716Z,0
2017-02-19T01:50:48.285Z,0
2017-02-19T01:51:28.919Z,0
2017-02-19T01:52:09.555Z,0
2017-02-19T01:52:50.133Z,0
2017-02-19T01:53:30.710Z,0
2017-02-19T01:54:11.305Z,68
2017-02-19T01:54:51.860Z,72
2017-02-19T01:55:32.417Z,0
2017-02-19T01:56:17.669Z,0
2017-02-19T01:57:00.280Z,0
2017-02-19T01:57:40.845Z,0
2017-02-19T01:58:21.433Z,0
2017-02-19T01:59:02.060Z,0
2017-02-19T01:59:42.622Z,0
2017-02-19T02:00:23.266Z,0
2017-02-19T02:01:03.891Z,0
2017-02-19T02:01:44.518Z,0
2017-02-19T02:02:25.168Z,0
2017-02-19T02:03:06.762Z,0
2017-02-19T02:03:47.348Z,0
2017-02-19T02:04:27.915Z,0
2017-02-19T02:05:13.284Z,0
2017-02-19T02:05:53.944Z,0
2017-02-19T02:06:34.615Z,0
2017-02-19T02:07:15.224Z,0
2017-02-19T02:07:55.910Z,0
2017-02-19T02:08:36.513Z,0
2017-02-19T02:09:17.093Z,0
2017-02-19T02:09:57.795Z,0
2017-02-19T02:10:38.446Z,0
2017-02-19T02:11:19.101Z,0
2017-02-19T02:12:00.839Z,0
2017-02-19T02:12:42.494Z,0
2017-02-19T02:13:23.106Z,0
2017-02-19T02:14:03.762Z,0
2017-02-19T02:14:44.412Z,0
2017-02-19T02:15:25.984Z,0
2017-02-19T02:16:06.640Z,0
2017-02-19T02:16:47.292Z,0
2017-02-19T02:17:27.943Z,0
2017-02-19T02:18:08.597Z,0
2017-02-19T02:18:49.249Z,0
2017-02-19T02:19:30.820Z,0
2017-02-19T02:20:11.478Z,0
2017-02-19T02:20:53.055Z,0
2017-02-19T02:21:33.618Z,0
2017-02-19T02:22:15.218Z,0
2017-02-19T02:22:56.851Z,0
2017-02-19T02:23:38.529Z,0
2017-02-19T02:24:19.188Z,0
2017-02-19T02:24:59.837Z,0
2017-02-19T02:25:40.490Z,0
2017-02-19T02:26:22.062Z,0
2017-02-19T02:27:02.719Z,0
2017-02-19T02:27:43.386Z,0
2017-02-19T02:28:24.022Z,0
2017-02-19T02:29:04.670Z,0
2017-02-19T02:29:45.238Z,0
2017-02-19T02:30:27.868Z,0
2017-02-19T02:31:08.484Z,0
2017-02-19T02:31:49.126Z,0
2017-02-19T02:32:29.702Z,0
2017-02-19T02:33:10.277Z,0
2017-02-19T02:33:50.870Z,0
2017-02-19T02:34:31.534Z,0
2017-02-19T02:35:12.094Z,0
2017-02-19T02:35:53.724Z,0
2017-02-19T02:36:34.317Z,0
2017-02-19T02:37:14.966Z,0
2017-02-19T02:37:55.564Z,0
2017-02-19T02:38:36.220Z,0
2017-02-19T02:39:16.800Z,0
2017-02-19T02:39:57.473Z,0
2017-02-19T02:40:38.035Z,0
2017-02-19T02:41:18.688Z,0
2017-02-19T02:41:59.334Z,0
2017-02-19T02:42:39.905Z,0
2017-02-19T02:43:20.536Z,0
2017-02-19T02:44:02.109Z,0
2017-02-19T02:44:42.682Z,0
2017-02-19T02:45:24.255Z,0
2017-02-19T02:46:04.828Z,0
2017-02-19T02:46:45.397Z,0
2017-02-19T02:47:25.946Z,0
2017-02-19T02:48:07.572Z,0
2017-02-19T02:48:48.270Z,0
2017-02-19T02:49:33.692Z,0
2017-02-19T02:50:14.331Z,0
2017-02-19T02:50:54.927Z,0
2017-02-19T02:51:35.594Z,0
2017-02-19T02:52:16.189Z,0
2017-02-19T02:52:56.749Z,0
2017-02-19T02:53:37.344Z,0
2017-02-19T02:54:17.919Z,0
2017-02-19T02:54:58.536Z,0
2017-02-19T02:55:39.149Z,0
2017-02-19T02:56:19.793Z,0
2017-02-19T02:57:02.396Z,0
2017-02-19T02:57:48.694Z,0
2017-02-19T02:58:29.344Z,0
2017-02-19T02:59:09.985Z,0
2017-02-19T02:59:50.637Z,0
2017-02-19T03:00:31.303Z,0
2017-02-19T03:01:11.950Z,0
2017-02-19T03:01:52.595Z,0
2017-02-19T03:02:35.171Z,0
2017-02-19T03:03:15.743Z,0
2017-02-19T03:03:56.402Z,0
2017-02-19T03:04:37.052Z,0
2017-02-19T03:05:17.625Z,0
2017-02-19T03:05:58.192Z,0
2017-02-19T03:06:38.917Z,0
2017-02-19T03:07:20.584Z,0
2017-02-19T03:08:01.250Z,0
2017-02-19T03:08:41.840Z,0
2017-02-19T03:09:23.425Z,0
2017-02-19T03:10:06.084Z,0
2017-02-19T03:10:47.751Z,0
2017-02-19T03:11:28.310Z,0
2017-02-19T03:12:08.904Z,0
2017-02-19T03:12:50.515Z,0
2017-02-19T03:13:32.094Z,0
2017-02-19T03:14:12.655Z,0
2017-02-19T03:14:53.275Z,0
2017-02-19T03:15:34.893Z,0
2017-02-19T03:16:15.524Z,0
2017-02-19T03:16:57.093Z,0
2017-02-19T03:17:38.672Z,0
2017-02-19T03:18:19.323Z,0
2017-02-19T03:18:59.982Z,0
2017-02-19T03:19:41.552Z,0
2017-02-19T03:20:22.113Z,0
2017-02-19T03:21:03.769Z,0
2017-02-19T03:21:45.458Z,0
2017-02-19T03:22:26.316Z,0
2017-02-19T03:23:06.885Z,0
2017-02-19T03:23:47.468Z,0
2017-02-19T03:24:28.067Z,0
2017-02-19T03:25:09.639Z,0
2017-02-19T03:25:50.233Z,0
2017-02-19T03:26:30.844Z,0
2017-02-19T03:27:23.478Z,0
2017-02-19T03:28:04.040Z,0
2017-02-19T03:28:44.682Z,0
2017-02-19T03:29:25.339Z,0
2017-02-19T03:30:05.896Z,0
2017-02-19T03:30:46.526Z,0
2017-02-19T03:31:27.114Z,0
2017-02-19T03:32:07.667Z,0
2017-02-19T03:32:49.273Z,0
2017-02-19T03:33:29.876Z,0
2017-02-19T03:34:10.528Z,0
2017-02-19T03:34:51.108Z,0
2017-02-19T03:35:31.775Z,0
2017-02-19T03:36:14.428Z,0
2017-02-19T03:36:56.056Z,0
2017-02-19T03:37:36.708Z,0
2017-02-19T03:38:17.357Z,0
2017-02-19T03:38:58.033Z,0
2017-02-19T03:39:40.614Z,0
2017-02-19T03:40:21.261Z,0
2017-02-19T03:41:01.916Z,0
2017-02-19T03:41:42.573Z,0
2017-02-19T03:42:23.225Z,0
2017-02-19T03:43:03.902Z,0
2017-02-19T03:43:45.548Z,0
2017-02-19T03:44:26.209Z,0
2017-02-19T03:45:06.860Z,0
2017-02-19T03:45:47.854Z,0
2017-02-19T03:46:28.521Z,0
2017-02-19T03:47:09.090Z,0
2017-02-19T03:47:49.677Z,0
2017-02-19T03:48:30.271Z,0
2017-02-19T03:49:10.833Z,0
2017-02-19T03:49:51.395Z,0
2017-02-19T03:50:31.986Z,0
2017-02-19T03:51:12.635Z,0
2017-02-19T03:51:54.308Z,0
2017-02-19T03:52:34.953Z,0
2017-02-19T03:53:15.614Z,0
2017-02-19T03:53:56.272Z,0
2017-02-19T03:54:38.897Z,0
2017-02-19T03:55:19.494Z,0
2017-02-19T03:56:00.172Z,0
2017-02-19T03:56:40.831Z,0
2017-02-19T03:57:21.475Z,0
2017-02-19T03:58:02.143Z,0
2017-02-19T03:58:44.736Z,0
2017-02-19T03:59:25.380Z,0
2017-02-19T04:00:06.034Z,0
2017-02-19T04:00:46.655Z,0
2017-02-19T04:01:28.310Z,0
2017-02-19T04:02:08.882Z,0
2017-02-19T04:02:49.463Z,0
2017-02-19T04:03:31.089Z,0
2017-02-19T04:04:11.747Z,0
2017-02-19T04:04:52.299Z,0
2017-02-19T04:05:32.894Z,0
2017-02-19T04:06:13.492Z,0
2017-02-19T04:06:55.175Z,0
2017-02-19T04:07:35.735Z,0
2017-02-19T04:08:16.331Z,0
2017-02-19T04:08:56.939Z,0
2017-02-19T04:09:37.577Z,0
2017-02-19T04:10:18.140Z,0
2017-02-19T04:10:58.744Z,0
2017-02-19T04:11:39.317Z,0
2017-02-19T04:12:21.001Z,0
2017-02-19T04:13:01.580Z,0
2017-02-19T04:13:42.164Z,0
2017-02-19T04:14:22.765Z,0
2017-02-19T04:15:03.421Z,0
2017-02-19T04:15:44.072Z,0
2017-02-19T04:16:24.717Z,0
2017-02-19T04:17:05.371Z,0
2017-02-19T04:17:46.020Z,0
2017-02-19T04:18:26.672Z,0
2017-02-19T04:19:07.736Z,0
2017-02-19T04:19:48.390Z,0
2017-02-19T04:20:29.040Z,0
2017-02-19T04:21:10.618Z,0
2017-02-19T04:21:51.279Z,0
2017-02-19T04:22:31.931Z,0
2017-02-19T04:23:12.582Z,0
2017-02-19T04:23:53.241Z,0
2017-02-19T04:24:33.881Z,0
2017-02-19T04:25:16.448Z,0
2017-02-19T04:25:58.044Z,0
2017-02-19T04:26:38.714Z,0
2017-02-19T04:27:19.360Z,0
2017-02-19T04:28:00.011Z,0
2017-02-19T04:28:40.664Z,0
2017-02-19T04:29:21.319Z,0
2017-02-19T04:30:01.979Z,0
2017-02-19T04:30:42.624Z,0
2017-02-19T04:31:23.278Z,0
2017-02-19T04:32:03.929Z,0
2017-02-19T04:32:44.586Z,0
2017-02-19T04:33:25.240Z,0
2017-02-19T04:34:05.890Z,0
2017-02-19T04:34:46.541Z,0
2017-02-19T04:35:27.194Z,0
2017-02-19T04:36:07.752Z,0
2017-02-19T04:36:48.397Z,0
2017-02-19T04:37:29.066Z,0
2017-02-19T04:38:09.715Z,0
2017-02-19T04:38:50.358Z,0
2017-02-19T04:39:32.433Z,0
2017-02-19T04:40:13.021Z,0
2017-02-19T04:40:53.583Z,0
2017-02-19T04:41:34.604Z,0
2017-02-19T04:42:15.167Z,0
2017-02-19T04:42:56.841Z,0
2017-02-19T04:43:37.487Z,0
2017-02-19T04:44:18.067Z,0
2017-02-19T04:45:03.191Z,0
2017-02-19T04:45:43.850Z,0
2017-02-19T04:46:24.431Z,0
2017-02-19T04:47:05.053Z,0
2017-02-19T04:47:45.701Z,0
2017-02-19T04:48:26.276Z,0
2017-02-19T04:49:06.895Z,0
2017-02-19T04:49:47.560Z,0
2017-02-19T04:50:28.151Z,0
2017-02-19T04:51:08.762Z,0
2017-02-19T04:51:49.413Z,0
2017-02-19T04:52:30.065Z,0
2017-02-19T04:53:10.732Z,0
2017-02-19T04:53:52.403Z,0
2017-02-19T04:54:33.054Z,0
2017-02-19T04:55:13.709Z,0
2017-02-19T04:55:54.357Z,0
2017-02-19T04:56:34.944Z,0
2017-02-19T04:57:15.560Z,0
2017-02-19T04:57:56.246Z,0
2017-02-19T04:58:38.812Z,0
2017-02-19T04:59:19.477Z,0
2017-02-19T05:00:00.071Z,0
2017-02-19T05:00:40.631Z,0
2017-02-19T05:01:21.255Z,0
2017-02-19T05:02:01.828Z,0
2017-02-19T05:02:42.395Z,0
2017-02-19T05:03:22.970Z,0
2017-02-19T05:04:04.666Z,0
2017-02-19T05:04:45.245Z,0
2017-02-19T05:05:27.898Z,0
2017-02-19T05:06:09.576Z,0
2017-02-19T05:06:50.235Z,0
2017-02-19T05:07:30.874Z,0
2017-02-19T05:08:11.555Z,0
2017-02-19T05:08:52.212Z,0
2017-02-19T05:09:32.845Z,0
2017-02-19T05:10:13.493Z,0
2017-02-19T05:10:54.146Z,0
2017-02-19T05:11:34.723Z,0
2017-02-19T05:12:15.324Z,0
2017-02-19T05:12:55.900Z,0
2017-02-19T05:13:36.561Z,0
2017-02-19T05:14:17.124Z,0
2017-02-19T05:14:57.723Z,0
2017-02-19T05:15:38.308Z,0
2017-02-19T05:16:18.878Z,0
2017-02-19T05:16:59.531Z,0
2017-02-19T05:17:40.162Z,0
2017-02-19T05:18:20.809Z,0
2017-02-19T05:19:02.399Z,0
2017-02-19T05:19:43.062Z,0
2017-02-19T05:20:24.145Z,0
2017-02-19T05:21:04.772Z,0
2017-02-19T05:21:45.352Z,0
2017-02-19T05:22:26.026Z,0
2017-02-19T05:23:06.615Z,0
2017-02-19T05:23:47.270Z,0
2017-02-19T05:24:27.853Z,0
2017-02-19T05:25:08.523Z,0
2017-02-19T05:25:49.123Z,0
2017-02-19T05:26:29.720Z,0
2017-02-19T05:27:10.334Z,0
2017-02-19T05:27:50.990Z,0
2017-02-19T05:28:31.552Z,0
2017-02-19T05:29:12.183Z,0
2017-02-19T05:29:52.837Z,0
2017-02-19T05:30:33.397Z,0
2017-02-19T05:31:14.038Z,0
2017-02-19T05:31:54.711Z,0
2017-02-19T05:32:35.354Z,0
2017-02-19T05:33:15.996Z,0
2017-02-19T05:33:56.650Z,0
2017-02-19T05:34:37.303Z,0
2017-02-19T05:35:17.864Z,0
2017-02-19T05:35:58.504Z,0
2017-02-19T05:36:39.167Z,0
2017-02-19T05:37:19.742Z,0
2017-02-19T05:38:00.299Z,0
2017-02-19T05:38:40.918Z,0
2017-02-19T05:39:21.585Z,0
2017-02-19T05:40:02.149Z,0
2017-02-19T05:40:42.778Z,0
2017-02-19T05:41:23.422Z,0
2017-02-19T05:42:04.075Z,0
2017-02-19T05:42:44.733Z,0
2017-02-19T05:43:25.399Z,0
2017-02-19T05:44:06.039Z,0
2017-02-19T05:44:46.687Z,0
2017-02-19T05:45:28.256Z,0
2017-02-19T05:46:08.908Z,0
2017-02-19T05:46:49.593Z,0
2017-02-19T05:47:30.230Z,0
2017-02-19T05:48:10.876Z,0
2017-02-19T05:48:51.532Z,0
2017-02-19T05:49:32.183Z,0
2017-02-19T05:50:12.765Z,0
2017-02-19T05:50:53.388Z,0
2017-02-19T05:51:33.950Z,0
2017-02-19T05:52:14.586Z,0
2017-02-19T05:52:56.159Z,0
2017-02-19T05:53:36.743Z,0
2017-02-19T05:54:17.375Z,0
2017-02-19T05:54:58.018Z,0
2017-02-19T05:55:38.586Z,0
2017-02-19T05:56:19.223Z,0
2017-02-19T05:57:00.806Z,0
2017-02-19T05:57:41.392Z,0
2017-02-19T05:58:22.059Z,0
2017-02-19T05:59:02.646Z,0
2017-02-19T05:59:43.307Z,0
2017-02-19T06:00:23.856Z,0
2017-02-19T06:01:04.456Z,0
2017-02-19T06:01:45.069Z,0
2017-02-19T06:02:25.659Z,0
2017-02-19T06:03:06.235Z,0
2017-02-19T06:03:46.886Z,0
2017-02-19T06:04:27.465Z,0
2017-02-19T06:05:08.139Z,0
2017-02-19T06:05:48.771Z,4
2017-02-19T06:06:29.335Z,4
2017-02-19T06:07:10.993Z,4
2017-02-19T06:07:51.652Z,4
2017-02-19T06:08:32.221Z,4
2017-02-19T06:09:12.858Z,0
2017-02-19T06:09:53.502Z,4
2017-02-19T06:10:34.058Z,4
2017-02-19T06:11:14.706Z,4
2017-02-19T06:11:55.286Z,4
2017-02-19T06:12:35.898Z,4
2017-02-19T06:13:16.559Z,8
2017-02-19T06:13:59.132Z,4
2017-02-19T06:14:39.737Z,4
2017-02-19T06:15:20.262Z,8
2017-02-19T06:16:00.849Z,8
2017-02-19T06:16:41.472Z,8
2017-02-19T06:17:22.050Z,8
2017-02-19T06:18:02.621Z,12
2017-02-19T06:18:44.248Z,8
2017-02-19T06:19:24.827Z,12
2017-02-19T06:20:05.397Z,12
2017-02-19T06:20:45.987Z,16
2017-02-19T06:21:26.567Z,16
2017-02-19T06:22:08.221Z,16
2017-02-19T06:22:48.879Z,20
2017-02-19T06:23:29.433Z,20
2017-02-19T06:24:10.075Z,24
2017-02-19T06:24:50.730Z,24
2017-02-19T06:25:31.291Z,28
2017-02-19T06:26:11.887Z,28
2017-02-19T06:26:52.469Z,32
2017-02-19T06:27:33.054Z,36
2017-02-19T06:28:13.616Z,40
2017-02-19T06:28:54.295Z,44
2017-02-19T06:29:34.875Z,48
2017-02-19T06:30:16.424Z,52
2017-02-19T06:30:56.994Z,56
2017-02-19T06:31:37.572Z,60
2017-02-19T06:32:18.173Z,64
2017-02-19T06:32:59.735Z,68
2017-02-19T06:33:40.309Z,72
2017-02-19T06:34:20.891Z,76
2017-02-19T06:35:01.454Z,80
2017-02-19T06:35:42.019Z,84
2017-02-19T06:36:22.587Z,88
2017-02-19T06:37:03.177Z,92
2017-02-19T06:37:43.732Z,96
2017-02-19T06:38:24.304Z,100
2017-02-19T06:39:04.882Z,104
2017-02-19T06:39:45.459Z,108
2017-02-19T06:40:26.060Z,112
2017-02-19T06:41:06.615Z,116
2017-02-19T06:41:47.187Z,124
2017-02-19T06:42:27.745Z,128
2017-02-19T06:43:08.316Z,132
2017-02-19T06:43:48.879Z,140
2017-02-19T06:44:29.463Z,144
2017-02-19T06:45:10.021Z,156
2017-02-19T06:45:50.667Z,160
2017-02-19T06:46:31.248Z,168
2017-02-19T06:47:11.871Z,180
2017-02-19T06:47:52.459Z,188
2017-02-19T06:48:33.024Z,200
2017-02-19T06:49:13.595Z,212
2017-02-19T06:49:54.200Z,228
2017-02-19T06:50:34.770Z,244
2017-02-19T06:51:15.350Z,264
2017-02-19T06:51:55.936Z,284
2017-02-19T06:52:36.524Z,304
2017-02-19T06:53:17.127Z,328
2017-02-19T06:53:57.707Z,348
2017-02-19T06:54:39.285Z,368
2017-02-19T06:55:19.861Z,388
2017-02-19T06:56:00.468Z,408
2017-02-19T06:56:41.045Z,428
2017-02-19T06:57:21.621Z,448
2017-02-19T06:58:02.215Z,472
2017-02-19T06:58:42.796Z,492
2017-02-19T06:59:23.366Z,512
2017-02-19T07:00:03.954Z,536
2017-02-19T07:00:44.532Z,560
2017-02-19T07:01:25.095Z,588
2017-02-19T07:02:05.697Z,612
2017-02-19T07:02:46.666Z,644
2017-02-19T07:03:27.232Z,676
2017-02-19T07:04:07.794Z,708
2017-02-19T07:04:48.385Z,736
2017-02-19T07:05:28.949Z,764
2017-02-19T07:06:09.504Z,796
2017-02-19T07:06:50.117Z,824
2017-02-19T07:07:30.692Z,852
2017-02-19T07:08:11.254Z,872
2017-02-19T07:08:51.826Z,892
2017-02-19T07:09:32.389Z,916
2017-02-19T07:10:12.963Z,936
2017-02-19T07:10:53.527Z,952
2017-02-19T07:11:34.128Z,968
2017-02-19T07:12:14.701Z,988
2017-02-19T07:12:55.297Z,1012
2017-02-19T07:13:35.857Z,1044
2017-02-19T07:14:16.446Z,1080
2017-02-19T07:14:57.022Z,1120
2017-02-19T07:15:37.582Z,1164
2017-02-19T07:16:18.153Z,1204
2017-02-19T07:16:58.730Z,1240
2017-02-19T07:17:39.274Z,1268
2017-02-19T07:18:19.888Z,1300
2017-02-19T07:19:00.456Z,1316
2017-02-19T07:19:41.054Z,1336
2017-02-19T07:20:21.618Z,1360
2017-02-19T07:21:02.213Z,1384
2017-02-19T07:21:42.779Z,1416
2017-02-19T07:22:23.374Z,1444
2017-02-19T07:23:03.988Z,1464
2017-02-19T07:23:44.558Z,1488
2017-02-19T07:24:25.139Z,1516
2017-02-19T07:25:05.703Z,1544
2017-02-19T07:25:46.319Z,1576
2017-02-19T07:26:26.901Z,1604
2017-02-19T07:27:07.468Z,1628
2017-02-19T07:27:48.040Z,1652
2017-02-19T07:28:28.644Z,1672
2017-02-19T07:29:09.333Z,1696
2017-02-19T07:29:50.931Z,1720
2017-02-19T07:30:31.477Z,1744
2017-02-19T07:31:12.055Z,1764
2017-02-19T07:31:52.646Z,1784
2017-02-19T07:32:33.229Z,1800
2017-02-19T07:33:14.824Z,1820
2017-02-19T07:33:55.371Z,1832
2017-02-19T07:34:35.946Z,1844
2017-02-19T07:35:16.577Z,1856
2017-02-19T07:35:57.153Z,1868
2017-02-19T07:36:37.755Z,1880
2017-02-19T07:37:18.361Z,1900
2017-02-19T07:37:58.964Z,1924
2017-02-19T07:38:39.590Z,1944
2017-02-19T07:39:20.161Z,1980
2017-02-19T07:40:00.710Z,2016
2017-02-19T07:40:41.311Z,2040
2017-02-19T07:41:21.879Z,2064
2017-02-19T07:42:02.498Z,2080
2017-02-19T07:42:43.143Z,2096
2017-02-19T07:43:23.734Z,2108
2017-02-19T07:44:04.351Z,2116
2017-02-19T07:44:45.003Z,2120
2017-02-19T07:45:25.552Z,2112
2017-02-19T07:46:06.202Z,2104
2017-02-19T07:46:46.857Z,2096
2017-02-19T07:47:27.519Z,2088
2017-02-19T07:48:08.170Z,2088
2017-02-19T07:48:48.823Z,2084
2017-02-19T07:49:29.467Z,2092
2017-02-19T07:50:10.120Z,2104
2017-02-19T07:50:50.673Z,2124
2017-02-19T07:51:31.282Z,2144
2017-02-19T07:52:11.877Z,2168
2017-02-19T07:52:52.531Z,2180
2017-02-19T07:53:33.080Z,2172
2017-02-19T07:54:13.689Z,2164
2017-02-19T07:54:54.285Z,2152
2017-02-19T07:55:34.938Z,2152
2017-02-19T07:56:15.519Z,2160
2017-02-19T07:56:56.147Z,2192
2017-02-19T07:57:36.808Z,2208
2017-02-19T07:58:17.380Z,2216
2017-02-19T07:58:58.011Z,2208
2017-02-19T07:59:38.644Z,2212
2017-02-19T08:00:19.260Z,2228
2017-02-19T08:00:59.979Z,2268
2017-02-19T08:01:40.610Z,2312
2017-02-19T08:02:21.268Z,2384
2017-02-19T08:03:01.913Z,2456
2017-02-19T08:03:42.574Z,2532
2017-02-19T08:04:23.218Z,2600
2017-02-19T08:05:03.879Z,2656
2017-02-19T08:05:44.424Z,2700
2017-02-19T08:06:27.070Z,2708
2017-02-19T08:07:07.650Z,2640
2017-02-19T08:07:48.319Z,2548
2017-02-19T08:08:28.878Z,2432
2017-02-19T08:09:09.529Z,2300
2017-02-19T08:09:50.083Z,2176
2017-02-19T08:10:30.724Z,2064
2017-02-19T08:11:11.414Z,1960
2017-02-19T08:11:52.032Z,1856
2017-02-19T08:12:32.689Z,1752
2017-02-19T08:13:13.345Z,1652
2017-02-19T08:13:54.036Z,1548
2017-02-19T08:14:35.677Z,1472
2017-02-19T08:15:16.331Z,1416
2017-02-19T08:15:56.912Z,1396
2017-02-19T08:16:37.591Z,1416
2017-02-19T08:17:18.183Z,1464
2017-02-19T08:17:58.867Z,1532
2017-02-19T08:18:39.452Z,1616
2017-02-19T08:19:20.093Z,1708
2017-02-19T08:20:00.651Z,1788
2017-02-19T08:20:41.235Z,1860
2017-02-19T08:21:21.906Z,1920
2017-02-19T08:22:02.552Z,1976
2017-02-19T08:22:43.195Z,2032
2017-02-19T08:23:23.870Z,2068
2017-02-19T08:24:04.505Z,2080
2017-02-19T08:24:45.161Z,2084
2017-02-19T08:25:25.803Z,2068
2017-02-19T08:26:06.411Z,2040
2017-02-19T08:26:47.063Z,1996
2017-02-19T08:27:27.671Z,1948
2017-02-19T08:28:08.316Z,1912
2017-02-19T08:28:49.021Z,1880
2017-02-19T08:29:29.671Z,1872
2017-02-19T08:30:11.286Z,1888
2017-02-19T08:30:51.964Z,1908
2017-02-19T08:31:32.532Z,1932
2017-02-19T08:32:13.215Z,1956
2017-02-19T08:32:53.817Z,1988
2017-02-19T08:33:34.454Z,2024
2017-02-19T08:34:15.016Z,2064
2017-02-19T08:34:55.613Z,2116
2017-02-19T08:35:36.192Z,2184
2017-02-19T08:36:16.759Z,2252
2017-02-19T08:36:58.438Z,2324
2017-02-19T08:37:39.088Z,2380
2017-02-19T08:38:19.747Z,2440
2017-02-19T08:39:00.396Z,2500
2017-02-19T08:39:41.049Z,2572
2017-02-19T08:40:21.714Z,2648
2017-02-19T08:41:02.355Z,2716
2017-02-19T08:41:43.009Z,2764
2017-02-19T08:42:23.653Z,2800
2017-02-19T08:43:05.233Z,2808
2017-02-19T08:43:47.836Z,2780
2017-02-19T08:44:28.483Z,2744
2017-02-19T08:45:10.052Z,2712
2017-02-19T08:45:51.631Z,2688
2017-02-19T08:46:32.287Z,2688
2017-02-19T08:47:12.940Z,2700
2017-02-19T08:47:53.593Z,2724
2017-02-19T08:48:34.254Z,2748
2017-02-19T08:49:14.898Z,2772
2017-02-19T08:49:55.550Z,2804
2017-02-19T08:50:36.201Z,2840
2017-02-19T08:51:16.789Z,2868
2017-02-19T08:51:57.401Z,2900
2017-02-19T08:52:38.066Z,3000
2017-02-19T08:53:18.637Z,2944
2017-02-19T08:53:59.265Z,2940
2017-02-19T08:54:40.849Z,2920
2017-02-19T08:55:21.434Z,2868
2017-02-19T08:56:02.043Z,2792
2017-02-19T08:56:42.633Z,2692
2017-02-19T08:57:24.203Z,2560
2017-02-19T08:58:04.771Z,2420
2017-02-19T08:58:45.368Z,2292
2017-02-19T08:59:27.972Z,2172
2017-02-19T09:00:08.621Z,2080
2017-02-19T09:00:49.279Z,1984
2017-02-19T09:01:30.974Z,1868
2017-02-19T09:02:11.658Z,1756
2017-02-19T09:02:52.255Z,1676
2017-02-19T09:03:32.909Z,1652
2017-02-19T09:04:14.481Z,1692
2017-02-19T09:04:55.141Z,1724
2017-02-19T09:05:35.790Z,1728
2017-02-19T09:06:16.348Z,1748
2017-02-19T09:06:56.961Z,1808
2017-02-19T09:07:37.551Z,1940
2017-02-19T09:08:18.140Z,2132
2017-02-19T09:08:58.706Z,2252
2017-02-19T09:09:39.360Z,2292
2017-02-19T09:10:19.961Z,2244
2017-02-19T09:11:00.560Z,2140
2017-02-19T09:11:41.135Z,2024
2017-02-19T09:12:22.752Z,1948
2017-02-19T09:13:03.731Z,1952
2017-02-19T09:13:44.319Z,1984
2017-02-19T09:14:24.906Z,2028
2017-02-19T09:15:05.466Z,2128
2017-02-19T09:15:46.048Z,2088
2017-02-19T09:16:28.702Z,2160
2017-02-19T09:17:09.351Z,2284
2017-02-19T09:17:50.100Z,2440
2017-02-19T09:18:30.761Z,2612
2017-02-19T09:19:11.406Z,2804
2017-02-19T09:19:52.081Z,2988
2017-02-19T09:20:32.754Z,3124
2017-02-19T09:21:13.324Z,3184
2017-02-19T09:21:53.928Z,3152
2017-02-19T09:22:34.569Z,3080
2017-02-19T09:23:15.229Z,3080
2017-02-19T09:23:55.880Z,3168
2017-02-19T09:24:36.446Z,3324
2017-02-19T09:25:17.027Z,3508
2017-02-19T09:25:58.192Z,3644
2017-02-19T09:26:38.299Z,3732
2017-02-19T09:27:18.876Z,3804
2017-02-19T09:27:59.462Z,3828
2017-02-19T09:28:40.014Z,3816
2017-02-19T09:29:20.602Z,3756
2017-02-19T09:30:01.185Z,3684
2017-02-19T09:30:41.815Z,3612
2017-02-19T09:31:22.424Z,3596
2017-02-19T09:32:03.022Z,3636
2017-02-19T09:32:43.586Z,3716
2017-02-19T09:33:24.159Z,3824
2017-02-19T09:34:04.712Z,3920
2017-02-19T09:34:45.300Z,4012
2017-02-19T09:35:25.880Z,4020
2017-02-19T09:36:06.454Z,3900
2017-02-19T09:36:47.053Z,3660
2017-02-19T09:37:27.606Z,3428
2017-02-19T09:38:08.182Z,3336
2017-02-19T09:38:48.736Z,3340
2017-02-19T09:39:29.305Z,3260
2017-02-19T09:40:09.864Z,3088
2017-02-19T09:40:50.428Z,2932
2017-02-19T09:41:31.004Z,2868
2017-02-19T09:42:11.598Z,2892
2017-02-19T09:42:52.172Z,2944
2017-02-19T09:43:32.789Z,3012